createdAt,value
2023-04-13T00:00:08.185Z,99.90
2023-04-13T00:02:56.032Z,99.90
2023-04-13T00:05:42.743Z,99.90
2023-04-13T00:08:30.691Z,99.90
2023-04-13T00:11:17.799Z,99.90
2023-04-13T00:14:04.330Z,99.90
2023-04-13T00:16:52.060Z,99.90
2023-04-13T00:19:38.178Z,99.90
2023-04-13T00:22:28.085Z,99.90
2023-04-13T00:25:15.367Z,99.90
2023-04-13T00:28:06.297Z,99.90
2023-04-13T00:30:52.668Z,99.90
2023-04-13T00:33:39.966Z,99.90
2023-04-13T00:36:27.539Z,99.90
2023-04-13T00:39:16.109Z,99.90
2023-04-13T00:42:02.172Z,99.90
2023-04-13T00:44:48.878Z,99.90
2023-04-13T00:47:35.633Z,99.90
2023-04-13T00:50:21.757Z,99.90
2023-04-13T00:53:11.237Z,99.90
2023-04-13T00:55:58.216Z,99.90
2023-04-13T00:58:45.627Z,99.90
2023-04-13T01:01:31.733Z,99.90
2023-04-13T01:04:18.816Z,99.90
2023-04-13T01:07:24.153Z,99.90
2023-04-13T01:10:40.207Z,99.90
2023-04-13T01:13:30.914Z,99.90
2023-04-13T01:16:23.652Z,99.90
2023-04-13T01:19:41.200Z,99.90
2023-04-13T01:22:32.981Z,99.90
2023-04-13T01:25:44.695Z,99.90
2023-04-13T01:28:31.104Z,99.90
2023-04-13T01:31:19.212Z,99.90
2023-04-13T01:34:06.028Z,99.90
2023-04-13T01:36:53.037Z,99.90
2023-04-13T01:39:39.924Z,99.90
2023-04-13T01:42:36.802Z,99.90
2023-04-13T01:45:27.121Z,99.90
2023-04-13T01:48:28.189Z,99.90
2023-04-13T01:51:19.859Z,99.90
2023-04-13T01:54:13.891Z,99.90
2023-04-13T01:57:04.232Z,99.90
2023-04-13T01:59:52.991Z,99.90
2023-04-13T02:02:40.644Z,99.90
2023-04-13T02:05:28.524Z,99.90
2023-04-13T02:08:15.664Z,99.90
2023-04-13T02:11:05.824Z,99.90
2023-04-13T02:13:53.060Z,99.90
2023-04-13T02:16:40.462Z,99.90
2023-04-13T02:19:28.392Z,99.90
2023-04-13T02:22:14.428Z,99.90
2023-04-13T02:25:00.555Z,99.90
2023-04-13T02:27:46.711Z,99.90
2023-04-13T02:30:32.744Z,99.90
2023-04-13T02:33:21.505Z,99.90
2023-04-13T02:36:09.383Z,99.90
2023-04-13T02:38:58.551Z,99.90
2023-04-13T02:41:48.482Z,99.90
2023-04-13T02:44:39.531Z,99.90
2023-04-13T02:47:27.258Z,99.90
2023-04-13T02:50:17.200Z,99.90
2023-04-13T02:53:11.596Z,99.90
2023-04-13T02:56:01.069Z,99.90
2023-04-13T02:58:48.082Z,99.90
2023-04-13T03:01:37.229Z,99.90
2023-04-13T03:04:23.887Z,99.90
2023-04-13T03:07:10.221Z,99.90
2023-04-13T03:10:04.280Z,99.90
2023-04-13T03:12:51.671Z,99.90
2023-04-13T03:15:37.780Z,99.90
2023-04-13T03:18:24.796Z,99.90
2023-04-13T03:21:10.964Z,99.90
2023-04-13T03:24:05.332Z,99.90
2023-04-13T03:26:53.454Z,99.90
2023-04-13T03:29:47.219Z,99.90
2023-04-13T03:32:39.674Z,99.90
2023-04-13T03:35:26.003Z,99.90
2023-04-13T03:38:12.996Z,99.90
2023-04-13T03:41:03.351Z,99.90
2023-04-13T03:43:51.664Z,99.90
2023-04-13T03:46:38.046Z,99.90
2023-04-13T03:49:34.596Z,99.90
2023-04-13T03:52:20.627Z,99.90
2023-04-13T03:55:14.228Z,99.90
2023-04-13T03:58:02.393Z,99.90
2023-04-13T04:00:48.773Z,99.90
2023-04-13T04:03:43.123Z,99.90
2023-04-13T04:06:29.533Z,99.90
2023-04-13T04:09:27.475Z,99.90
2023-04-13T04:12:15.945Z,99.90
2023-04-13T04:15:05.375Z,99.90
2023-04-13T04:17:52.349Z,99.90
2023-04-13T04:20:38.880Z,99.90
2023-04-13T04:23:28.281Z,99.90
2023-04-13T04:26:25.630Z,99.90
2023-04-13T04:29:17.903Z,99.90
2023-04-13T04:32:05.607Z,99.90
2023-04-13T04:34:53.032Z,99.90
2023-04-13T04:37:41.163Z,99.90
2023-04-13T04:40:35.713Z,99.90
2023-04-13T04:43:27.088Z,99.90
2023-04-13T04:46:16.100Z,99.90
2023-04-13T04:49:07.713Z,99.90
2023-04-13T04:51:55.849Z,99.90
2023-04-13T04:54:42.624Z,99.90
2023-04-13T04:57:29.942Z,99.90
2023-04-13T05:00:17.116Z,99.90
2023-04-13T05:03:21.619Z,99.90
2023-04-13T05:06:14.693Z,99.90
2023-04-13T05:09:06.799Z,99.90
2023-04-13T05:11:56.351Z,99.90
2023-04-13T05:14:42.639Z,99.90
2023-04-13T05:17:30.214Z,99.90
2023-04-13T05:20:17.572Z,99.90
2023-04-13T05:23:10.013Z,99.90
2023-04-13T05:26:02.638Z,99.90
2023-04-13T05:28:48.528Z,99.90
2023-04-13T05:31:35.492Z,99.90
2023-04-13T05:34:23.502Z,99.90
2023-04-13T05:37:21.533Z,99.90
2023-04-13T05:40:12.592Z,99.90
2023-04-13T05:42:59.517Z,99.90
2023-04-13T05:45:50.242Z,99.90
2023-04-13T05:48:36.616Z,99.90
2023-04-13T05:51:30.842Z,99.90
2023-04-13T05:54:17.500Z,99.90
2023-04-13T05:57:07.695Z,99.90
2023-04-13T05:59:56.190Z,99.90
2023-04-13T06:03:01.534Z,99.90
2023-04-13T06:05:48.714Z,99.90
2023-04-13T06:08:35.095Z,99.90
2023-04-13T06:11:21.364Z,99.90
2023-04-13T06:14:07.280Z,99.90
2023-04-13T06:16:53.355Z,99.90
2023-04-13T06:19:39.774Z,99.90
2023-04-13T06:22:25.701Z,99.90
2023-04-13T06:25:12.462Z,99.90
2023-04-13T06:28:02.264Z,99.90
2023-04-13T06:30:50.902Z,99.90
2023-04-13T06:33:37.088Z,99.90
2023-04-13T06:36:23.187Z,99.90
2023-04-13T06:39:11.620Z,99.90
2023-04-13T06:42:01.401Z,99.90
2023-04-13T06:45:11.614Z,99.90
2023-04-13T06:48:01.690Z,99.90
2023-04-13T06:50:49.395Z,99.70
2023-04-13T06:53:35.631Z,99.50
2023-04-13T06:56:21.956Z,99.70
2023-04-13T06:59:09.289Z,99.90
2023-04-13T07:01:56.434Z,99.10
2023-04-13T07:04:43.720Z,99.30
2023-04-13T07:07:29.682Z,97.80
2023-04-13T07:10:16.228Z,97.80
2023-04-13T07:13:02.719Z,97.70
2023-04-13T07:15:50.830Z,97.10
2023-04-13T07:18:37.170Z,96.30
2023-04-13T07:21:23.185Z,96.40
2023-04-13T07:24:15.366Z,96.80
2023-04-13T07:27:03.322Z,96.30
2023-04-13T07:29:54.266Z,97.00
2023-04-13T07:32:42.885Z,96.30
2023-04-13T07:35:30.595Z,95.80
2023-04-13T07:38:18.631Z,95.00
2023-04-13T07:41:04.650Z,95.10
2023-04-13T07:43:53.640Z,94.50
2023-04-13T07:46:41.601Z,93.10
2023-04-13T07:49:28.368Z,93.60
2023-04-13T07:52:15.836Z,93.50
2023-04-13T07:55:03.058Z,92.10
2023-04-13T07:57:53.533Z,91.60
2023-04-13T08:00:40.100Z,91.50
2023-04-13T08:03:31.783Z,91.90
2023-04-13T08:06:21.263Z,91.70
2023-04-13T08:09:08.036Z,91.80
2023-04-13T08:11:54.267Z,92.50
2023-04-13T08:14:40.488Z,91.80
2023-04-13T08:17:26.897Z,91.00
2023-04-13T08:20:14.879Z,91.50
2023-04-13T08:23:00.988Z,90.60
2023-04-13T08:25:47.238Z,91.10
2023-04-13T08:28:35.416Z,90.00
2023-04-13T08:31:21.810Z,87.60
2023-04-13T08:34:17.032Z,89.30
2023-04-13T08:37:04.899Z,85.30
2023-04-13T08:39:59.506Z,81.50
2023-04-13T08:42:46.491Z,82.00
2023-04-13T08:45:37.039Z,83.50
2023-04-13T08:48:23.790Z,78.40
2023-04-13T08:51:12.584Z,77.80
2023-04-13T08:53:59.234Z,79.10
2023-04-13T08:56:50.873Z,78.50
2023-04-13T08:59:43.132Z,80.60
2023-04-13T09:02:36.653Z,78.00
2023-04-13T09:05:28.690Z,77.00
2023-04-13T09:08:21.328Z,76.90
2023-04-13T09:11:09.084Z,75.50
2023-04-13T09:13:55.861Z,76.20
2023-04-13T09:16:43.256Z,75.30
2023-04-13T09:19:38.250Z,75.10
2023-04-13T09:22:29.304Z,72.00
2023-04-13T09:25:27.479Z,75.00
2023-04-13T09:28:21.311Z,72.00
2023-04-13T09:31:07.778Z,70.50
2023-04-13T09:33:54.433Z,70.10
2023-04-13T09:36:53.519Z,73.00
2023-04-13T09:39:41.469Z,70.90
2023-04-13T09:42:27.650Z,69.00
2023-04-13T09:45:13.871Z,70.20
2023-04-13T09:48:03.039Z,69.40
2023-04-13T09:51:05.467Z,66.30
2023-04-13T09:53:52.067Z,67.10
2023-04-13T09:56:52.988Z,67.50
2023-04-13T09:59:39.559Z,68.70
2023-04-13T10:02:26.479Z,65.70
2023-04-13T10:05:13.990Z,64.10
2023-04-13T10:08:01.745Z,66.30
2023-04-13T10:10:50.517Z,68.90
2023-04-13T10:13:44.793Z,66.80
2023-04-13T10:16:30.593Z,65.80
2023-04-13T10:19:20.216Z,64.50
2023-04-13T10:22:09.164Z,63.50
2023-04-13T10:24:55.816Z,60.10
2023-04-13T10:27:42.617Z,62.70
2023-04-13T10:30:28.841Z,61.20
2023-04-13T10:33:15.715Z,62.00
2023-04-13T10:36:02.322Z,63.80
2023-04-13T10:38:48.486Z,64.30
2023-04-13T10:41:34.465Z,62.20
2023-04-13T10:44:20.737Z,58.20
2023-04-13T10:47:08.238Z,62.40
2023-04-13T10:49:54.870Z,63.90
2023-04-13T10:52:40.930Z,63.70
2023-04-13T10:55:27.710Z,64.90
2023-04-13T10:58:16.988Z,61.10
2023-04-13T11:01:04.601Z,63.00
2023-04-13T11:04:03.644Z,62.70
2023-04-13T11:06:52.538Z,64.10
2023-04-13T11:09:41.319Z,67.50
2023-04-13T11:12:27.628Z,65.00
2023-04-13T11:15:20.618Z,63.50
2023-04-13T11:18:07.226Z,63.80
2023-04-13T11:20:54.173Z,66.40
2023-04-13T11:23:40.432Z,68.40
2023-04-13T11:26:42.982Z,69.60
2023-04-13T11:29:30.082Z,66.30
2023-04-13T11:32:19.609Z,65.90
2023-04-13T11:35:10.394Z,68.10
2023-04-13T11:37:56.567Z,65.20
2023-04-13T11:40:45.326Z,66.70
2023-04-13T11:43:31.605Z,66.30
2023-04-13T11:46:25.379Z,66.60
2023-04-13T11:49:12.519Z,70.00
2023-04-13T11:52:02.340Z,67.50
2023-04-13T11:54:49.133Z,66.20
2023-04-13T11:57:36.316Z,68.40
2023-04-13T12:00:27.166Z,64.60
2023-04-13T12:03:34.515Z,68.50
2023-04-13T12:06:25.433Z,64.60
2023-04-13T12:09:15.923Z,68.60
2023-04-13T12:12:34.551Z,67.40
2023-04-13T12:15:26.371Z,63.70
2023-04-13T12:18:18.102Z,64.80
2023-04-13T12:21:13.460Z,65.60
2023-04-13T12:24:01.613Z,68.10
2023-04-13T12:29:38.984Z,64.80
2023-04-13T12:32:25.061Z,66.80
2023-04-13T12:35:11.306Z,66.50
2023-04-13T12:37:57.522Z,65.80
2023-04-13T12:40:44.161Z,66.50
2023-04-13T12:43:30.589Z,67.10
2023-04-13T12:46:17.348Z,69.40
2023-04-13T12:49:03.468Z,69.40
2023-04-13T12:51:49.723Z,68.50
2023-04-13T12:54:36.053Z,68.70
2023-04-13T12:57:22.462Z,69.60
2023-04-13T13:00:11.206Z,67.60
2023-04-13T13:03:10.132Z,69.30
2023-04-13T13:05:59.402Z,70.50
2023-04-13T13:08:45.961Z,67.30
2023-04-13T13:11:32.146Z,70.70
2023-04-13T13:14:20.283Z,69.70
2023-04-13T13:17:06.230Z,72.20
2023-04-13T13:19:52.406Z,69.30
2023-04-13T13:22:39.081Z,68.50
2023-04-13T13:25:25.256Z,67.70
2023-04-13T13:28:14.628Z,68.30
2023-04-13T13:31:01.591Z,68.80
2023-04-13T13:33:47.947Z,69.80
2023-04-13T13:36:34.097Z,69.70
2023-04-13T13:39:22.111Z,70.20
2023-04-13T13:42:08.472Z,68.60
2023-04-13T13:44:54.625Z,68.50
2023-04-13T13:47:41.177Z,69.70
2023-04-13T13:50:29.014Z,67.30
2023-04-13T13:53:16.580Z,68.20
2023-04-13T13:56:05.981Z,69.70
2023-04-13T13:58:52.299Z,67.60
2023-04-13T14:01:38.544Z,68.30
2023-04-13T14:04:24.779Z,67.60
2023-04-13T14:07:10.631Z,68.50
2023-04-13T14:09:56.845Z,70.20
2023-04-13T14:12:47.466Z,68.30
2023-04-13T14:15:34.993Z,68.50
2023-04-13T14:18:23.602Z,68.40
2023-04-13T14:21:09.805Z,66.90
2023-04-13T14:23:56.022Z,66.50
2023-04-13T14:26:41.904Z,67.60
2023-04-13T14:29:27.952Z,66.50
2023-04-13T14:32:13.847Z,67.90
2023-04-13T14:35:00.530Z,66.10
2023-04-13T14:37:47.622Z,68.20
2023-04-13T14:40:33.478Z,67.30
2023-04-13T14:43:19.419Z,66.20
2023-04-13T14:46:05.519Z,68.80
2023-04-13T14:48:51.960Z,67.10
2023-04-13T14:51:39.142Z,67.30
2023-04-13T14:54:26.322Z,66.80
2023-04-13T14:57:12.826Z,67.80
2023-04-13T14:59:58.974Z,68.00
2023-04-13T15:02:45.393Z,69.10
2023-04-13T15:05:43.532Z,67.70
2023-04-13T15:08:30.128Z,68.90
2023-04-13T15:11:16.391Z,71.50
2023-04-13T15:14:02.467Z,73.20
2023-04-13T15:16:48.544Z,76.80
2023-04-13T15:19:34.837Z,75.60
2023-04-13T15:22:20.865Z,78.80
2023-04-13T15:25:07.206Z,78.50
2023-04-13T15:27:57.399Z,75.60
2023-04-13T15:30:43.523Z,75.00
2023-04-13T15:33:29.709Z,77.10
2023-04-13T15:36:16.486Z,75.20
2023-04-13T15:39:04.545Z,74.00
2023-04-13T15:41:52.597Z,72.00
2023-04-13T15:44:39.170Z,73.70
2023-04-13T15:47:25.553Z,71.60
2023-04-13T15:50:12.640Z,72.10
2023-04-13T15:52:58.624Z,73.70
2023-04-13T15:55:44.708Z,75.60
2023-04-13T15:58:30.699Z,73.70
2023-04-13T16:01:16.596Z,73.30
2023-04-13T16:04:03.170Z,73.80
2023-04-13T16:07:04.985Z,75.10
2023-04-13T16:09:57.999Z,75.50
2023-04-13T16:12:45.343Z,76.20
2023-04-13T16:15:31.421Z,76.50
2023-04-13T16:18:18.575Z,75.80
2023-04-13T16:21:05.081Z,75.50
2023-04-13T16:23:52.363Z,76.10
2023-04-13T16:26:38.847Z,75.20
2023-04-13T16:29:26.586Z,75.10
2023-04-13T16:32:12.788Z,74.10
2023-04-13T16:34:58.763Z,74.60
2023-04-13T16:37:45.195Z,74.20
2023-04-13T16:40:31.419Z,74.90
2023-04-13T16:43:17.833Z,74.80
2023-04-13T16:46:04.092Z,74.30
2023-04-13T16:48:50.636Z,74.80
2023-04-13T16:51:36.928Z,74.80
2023-04-13T16:54:22.684Z,74.40
2023-04-13T16:57:09.373Z,75.30
2023-04-13T16:59:56.415Z,74.90
2023-04-13T17:02:42.997Z,74.70
2023-04-13T17:05:29.534Z,75.70
2023-04-13T17:08:17.082Z,75.90
2023-04-13T17:11:04.750Z,74.90
2023-04-13T17:13:51.686Z,75.70
2023-04-13T17:19:24.030Z,77.00
2023-04-13T17:22:10.133Z,77.30
2023-04-13T17:24:56.597Z,77.30
2023-04-13T17:27:42.834Z,77.60
2023-04-13T17:30:28.888Z,77.80
2023-04-13T17:33:14.863Z,78.10
2023-04-13T17:36:01.150Z,79.30
2023-04-13T17:38:47.429Z,78.00
2023-04-13T17:41:34.168Z,78.60
2023-04-13T17:44:20.039Z,78.60
2023-04-13T17:47:06.472Z,78.70
2023-04-13T17:49:53.256Z,78.90
2023-04-13T17:52:39.560Z,79.60
2023-04-13T17:55:25.295Z,78.60
2023-04-13T17:58:12.700Z,79.40
2023-04-13T18:00:58.644Z,79.80
2023-04-13T18:03:45.069Z,80.10
2023-04-13T18:06:31.613Z,80.20
2023-04-13T18:09:18.461Z,80.10
2023-04-13T18:12:04.504Z,80.00
2023-04-13T18:14:50.270Z,80.80
2023-04-13T18:17:37.932Z,81.60
2023-04-13T18:20:24.037Z,82.90
2023-04-13T18:23:09.941Z,83.80
2023-04-13T18:25:56.256Z,85.20
2023-04-13T18:28:42.457Z,85.50
2023-04-13T18:31:28.522Z,86.10
2023-04-13T18:34:14.556Z,86.90
2023-04-13T18:37:00.768Z,88.70
2023-04-13T18:39:46.668Z,89.40
2023-04-13T18:42:33.455Z,90.00
2023-04-13T18:45:19.576Z,89.30
2023-04-13T18:48:07.257Z,89.70
2023-04-13T18:50:53.707Z,90.40
2023-04-13T18:53:39.690Z,91.00
2023-04-13T18:56:26.080Z,91.30
2023-04-13T18:59:12.307Z,91.90
2023-04-13T19:01:58.587Z,92.40
2023-04-13T19:04:45.487Z,92.20
2023-04-13T19:07:31.730Z,91.70
2023-04-13T19:10:17.891Z,92.30
2023-04-13T19:13:04.443Z,92.50
2023-04-13T19:15:50.650Z,92.90
2023-04-13T19:18:36.556Z,93.00
2023-04-13T19:21:24.215Z,93.50
2023-04-13T19:24:13.587Z,93.60
2023-04-13T19:26:59.672Z,93.50
2023-04-13T19:29:46.000Z,93.50
2023-04-13T19:32:32.770Z,93.40
2023-04-13T19:35:19.131Z,93.30
2023-04-13T19:38:05.755Z,93.40
2023-04-13T19:40:51.755Z,93.70
2023-04-13T19:43:37.742Z,94.30
2023-04-13T19:46:23.797Z,93.30
2023-04-13T19:49:09.743Z,94.20
2023-04-13T19:51:55.845Z,93.40
2023-04-13T19:54:43.864Z,94.40
2023-04-13T19:57:30.609Z,94.20
2023-04-13T20:00:20.757Z,94.10
2023-04-13T20:03:08.480Z,93.90
2023-04-13T20:05:58.238Z,94.10
2023-04-13T20:08:45.471Z,94.80
2023-04-13T20:11:31.335Z,94.90
2023-04-13T20:14:17.819Z,95.10
2023-04-13T20:17:04.821Z,95.30
2023-04-13T20:19:50.881Z,96.00
2023-04-13T20:22:36.828Z,96.30
2023-04-13T20:25:22.951Z,97.00
2023-04-13T20:28:10.293Z,97.00
2023-04-13T20:30:57.057Z,97.60
2023-04-13T20:33:45.183Z,97.90
2023-04-13T20:36:31.863Z,98.50
2023-04-13T20:39:25.366Z,98.90
2023-04-13T20:42:12.000Z,99.10
2023-04-13T20:44:58.666Z,99.30
2023-04-13T20:47:50.338Z,99.90
2023-04-13T20:50:36.449Z,99.90
2023-04-13T20:53:23.969Z,99.90
2023-04-13T20:56:10.197Z,99.90
2023-04-13T20:58:57.862Z,99.90
2023-04-13T21:01:44.245Z,99.90
2023-04-13T21:04:31.016Z,99.90
2023-04-13T21:07:17.194Z,99.90
2023-04-13T21:10:03.595Z,99.90
2023-04-13T21:12:49.917Z,99.90
2023-04-13T21:15:36.135Z,99.90
2023-04-13T21:18:22.513Z,99.90
2023-04-13T21:21:09.851Z,99.90
2023-04-13T21:23:58.822Z,99.90
2023-04-13T21:26:45.730Z,99.90
2023-04-13T21:29:31.957Z,99.90
2023-04-13T21:32:17.886Z,99.90
2023-04-13T21:35:04.743Z,99.90
2023-04-13T21:37:51.358Z,99.90
2023-04-13T21:40:37.276Z,99.90
2023-04-13T21:43:23.217Z,99.90
2023-04-13T21:46:11.435Z,99.90
2023-04-13T21:48:57.593Z,99.90
2023-04-13T21:51:44.649Z,99.90
2023-04-13T21:54:30.975Z,99.90
2023-04-13T21:57:16.880Z,99.90
2023-04-13T22:00:05.046Z,99.90
2023-04-13T22:02:58.452Z,99.90
2023-04-13T22:05:44.961Z,99.90
2023-04-13T22:08:32.063Z,99.90
2023-04-13T22:11:18.173Z,99.90
2023-04-13T22:14:04.314Z,99.90
2023-04-13T22:16:50.237Z,99.90
2023-04-13T22:19:36.164Z,99.90
2023-04-13T22:22:22.338Z,99.90
2023-04-13T22:25:08.582Z,99.90
2023-04-13T22:27:54.965Z,99.90
2023-04-13T22:30:41.439Z,99.90
2023-04-13T22:33:31.837Z,99.90
2023-04-13T22:36:21.405Z,99.90
2023-04-13T22:39:07.359Z,99.90
2023-04-13T22:41:53.934Z,99.90
2023-04-13T22:44:40.349Z,99.90
2023-04-13T22:47:26.458Z,99.90
2023-04-13T22:50:12.962Z,99.90
2023-04-13T22:52:58.838Z,99.90
2023-04-13T22:55:45.047Z,99.90
2023-04-13T22:58:31.801Z,99.90
2023-04-13T23:01:17.821Z,99.90
2023-04-13T23:04:04.845Z,99.90
2023-04-13T23:06:50.964Z,99.90
2023-04-13T23:09:36.932Z,99.90
2023-04-13T23:12:23.912Z,99.90
2023-04-13T23:15:10.462Z,99.90
2023-04-13T23:17:56.857Z,99.90
2023-04-13T23:20:43.009Z,99.90
2023-04-13T23:23:28.932Z,99.90
2023-04-13T23:26:14.935Z,99.90
2023-04-13T23:29:01.283Z,99.90
2023-04-13T23:31:48.031Z,99.90
2023-04-13T23:34:33.989Z,99.90
2023-04-13T23:37:21.226Z,99.90
2023-04-13T23:40:09.103Z,99.90
2023-04-13T23:42:55.290Z,99.90
2023-04-13T23:45:41.734Z,99.90
2023-04-13T23:48:28.270Z,99.90
2023-04-13T23:51:14.515Z,99.90
2023-04-13T23:54:00.503Z,99.90
2023-04-13T23:56:47.012Z,99.90
2023-04-13T23:59:32.937Z,99.90
